createdAt,value
2018-12-17T00:00:19.297Z,89.31
2018-12-17T00:01:19.287Z,88.99
2018-12-17T00:02:19.277Z,89.31
2018-12-17T00:03:19.266Z,89.72
2018-12-17T00:04:19.264Z,89.51
2018-12-17T00:05:19.285Z,89.51
2018-12-17T00:06:19.544Z,89.20
2018-12-17T00:07:19.227Z,89.93
2018-12-17T00:08:19.216Z,89.72
2018-12-17T00:09:19.209Z,89.51
2018-12-17T00:10:19.196Z,89.72
2018-12-17T00:11:19.290Z,89.93
2018-12-17T00:12:19.460Z,89.83
2018-12-17T00:13:19.164Z,89.93
2018-12-17T00:14:19.154Z,89.72
2018-12-17T00:15:19.144Z,89.62
2018-12-17T00:16:19.133Z,89.51
2018-12-17T00:17:19.169Z,89.41
2018-12-17T00:18:19.795Z,89.10
2018-12-17T00:19:19.381Z,89.31
2018-12-17T00:20:19.092Z,89.41
2018-12-17T00:21:19.082Z,89.62
2018-12-17T00:22:19.072Z,89.62
2018-12-17T00:23:19.101Z,89.62
2018-12-17T00:24:19.791Z,89.62
2018-12-17T00:25:19.043Z,88.99
2018-12-17T00:26:19.389Z,89.31
2018-12-17T00:27:19.791Z,89.31
2018-12-17T00:28:19.020Z,89.41
2018-12-17T00:29:19.047Z,89.83
2018-12-17T00:30:18.989Z,89.10
2018-12-17T00:31:18.978Z,89.93
2018-12-17T00:32:18.969Z,89.51
2018-12-17T00:33:20.081Z,89.93
2018-12-17T00:34:18.948Z,89.62
2018-12-17T00:35:19.053Z,89.62
2018-12-17T00:36:18.925Z,89.83
2018-12-17T00:37:18.923Z,89.72
2018-12-17T00:38:18.907Z,90.14
2018-12-17T00:39:18.898Z,90.25
2018-12-17T00:40:19.231Z,90.14
2018-12-17T00:41:18.923Z,89.93
2018-12-17T00:42:18.868Z,90.03
2018-12-17T00:43:18.854Z,89.93
2018-12-17T00:44:18.844Z,89.72
2018-12-17T00:45:18.840Z,89.83
2018-12-17T00:46:18.822Z,89.72
2018-12-17T00:47:19.302Z,89.93
2018-12-17T00:48:18.804Z,89.72
2018-12-17T00:49:18.793Z,89.72
2018-12-17T00:50:18.782Z,89.72
2018-12-17T00:51:18.773Z,89.20
2018-12-17T00:52:18.764Z,89.26
2018-12-17T00:53:18.797Z,89.62
2018-12-17T00:54:19.067Z,89.83
2018-12-17T00:55:18.730Z,89.93
2018-12-17T00:56:18.719Z,89.83
2018-12-17T00:57:18.709Z,89.93
2018-12-17T00:58:18.699Z,90.03
2018-12-17T00:59:18.730Z,89.62
2018-12-17T01:00:18.679Z,89.62
2018-12-17T01:01:18.671Z,89.06
2018-12-17T01:02:18.658Z,89.31
2018-12-17T01:03:18.649Z,89.78
2018-12-17T01:04:18.639Z,89.51
2018-12-17T01:05:18.686Z,89.72
2018-12-17T01:06:18.618Z,90.14
2018-12-17T01:07:19.410Z,89.83
2018-12-17T01:08:18.599Z,89.68
2018-12-17T01:09:18.586Z,89.62
2018-12-17T01:10:18.577Z,89.41
2018-12-17T01:11:18.610Z,89.41
2018-12-17T01:12:18.557Z,90.10
2018-12-17T01:13:18.545Z,89.62
2018-12-17T01:14:18.902Z,89.72
2018-12-17T01:15:18.524Z,90.14
2018-12-17T01:16:18.517Z,89.89
2018-12-17T01:17:18.547Z,89.93
2018-12-17T01:18:18.493Z,89.93
2018-12-17T01:19:18.482Z,89.72
2018-12-17T01:20:18.474Z,89.78
2018-12-17T01:21:18.922Z,89.93
2018-12-17T01:22:18.454Z,89.83
2018-12-17T01:23:18.734Z,89.93
2018-12-17T01:24:18.433Z,89.83
2018-12-17T01:25:18.421Z,89.72
2018-12-17T01:26:18.410Z,90.14
2018-12-17T01:27:18.417Z,90.14
2018-12-17T01:28:22.176Z,89.62
2018-12-17T01:29:18.420Z,90.25
2018-12-17T01:30:18.372Z,89.93
2018-12-17T01:31:18.359Z,90.03
2018-12-17T01:32:18.348Z,89.58
2018-12-17T01:33:18.338Z,90.14
2018-12-17T01:34:18.328Z,89.62
2018-12-17T01:35:18.798Z,90.10
2018-12-17T01:36:18.307Z,90.14
2018-12-17T01:37:18.297Z,90.35
2018-12-17T01:38:18.287Z,90.77
2018-12-17T01:39:18.282Z,90.41
2018-12-17T01:40:18.266Z,90.14
2018-12-17T01:41:18.334Z,89.72
2018-12-17T01:42:18.580Z,90.56
2018-12-17T01:43:18.234Z,90.62
2018-12-17T01:44:18.223Z,90.10
2018-12-17T01:45:18.213Z,90.00
2018-12-17T01:46:18.203Z,90.20
2018-12-17T01:47:18.233Z,90.20
2018-12-17T01:48:18.184Z,90.41
2018-12-17T01:49:18.603Z,90.41
2018-12-17T01:50:18.203Z,90.56
2018-12-17T01:51:18.151Z,90.35
2018-12-17T01:52:18.142Z,90.77
2018-12-17T01:53:18.171Z,90.35
2018-12-17T01:54:18.122Z,90.10
2018-12-17T01:55:18.110Z,90.10
2018-12-17T01:56:18.386Z,89.68
2018-12-17T01:57:18.091Z,90.00
2018-12-17T01:58:18.080Z,90.00
2018-12-17T01:59:18.120Z,89.78
2018-12-17T02:00:18.061Z,89.89
2018-12-17T02:01:18.049Z,90.62
2018-12-17T02:02:18.038Z,89.93
2018-12-17T02:03:18.445Z,89.89
2018-12-17T02:04:18.018Z,89.89
2018-12-17T02:05:18.048Z,89.68
2018-12-17T02:06:18.002Z,89.68
2018-12-17T02:07:17.993Z,89.78
2018-12-17T02:08:17.983Z,90.10
2018-12-17T02:09:17.967Z,89.89
2018-12-17T02:10:18.274Z,89.58
2018-12-17T02:11:17.989Z,89.68
2018-12-17T02:12:17.936Z,90.52
2018-12-17T02:13:17.928Z,90.41
2018-12-17T02:14:17.982Z,90.41
2018-12-17T02:15:17.906Z,90.00
2018-12-17T02:16:17.898Z,89.68
2018-12-17T02:17:18.319Z,90.10
2018-12-17T02:18:17.878Z,90.31
2018-12-17T02:19:17.867Z,90.87
2018-12-17T02:20:17.854Z,90.45
2018-12-17T02:21:17.846Z,90.56
2018-12-17T02:22:17.834Z,91.08
2018-12-17T02:23:17.867Z,90.91
2018-12-17T02:24:18.294Z,90.66
2018-12-17T02:25:17.806Z,91.18
2018-12-17T02:26:17.794Z,91.08
2018-12-17T02:27:17.788Z,91.18
2018-12-17T02:28:17.776Z,90.83
2018-12-17T02:29:17.809Z,91.08
2018-12-17T02:30:17.760Z,91.18
2018-12-17T02:31:17.744Z,90.10
2018-12-17T02:32:17.734Z,90.41
2018-12-17T02:33:17.722Z,90.66
2018-12-17T02:34:17.711Z,90.45
2018-12-17T02:35:17.998Z,90.35
2018-12-17T02:36:17.691Z,90.56
2018-12-17T02:37:18.110Z,91.18
2018-12-17T02:38:17.672Z,91.18
2018-12-17T02:39:17.664Z,91.08
2018-12-17T02:40:17.661Z,90.87
2018-12-17T02:41:17.684Z,90.87
2018-12-17T02:42:17.629Z,90.97
2018-12-17T02:43:17.619Z,91.50
2018-12-17T02:44:17.900Z,91.18
2018-12-17T02:45:17.600Z,91.29
2018-12-17T02:46:17.592Z,90.56
2018-12-17T02:47:17.617Z,91.08
2018-12-17T02:48:17.601Z,90.97
2018-12-17T02:49:17.563Z,90.77
2018-12-17T02:50:17.547Z,90.66
2018-12-17T02:51:17.944Z,90.77
2018-12-17T02:52:17.528Z,90.66
2018-12-17T02:53:17.739Z,91.08
2018-12-17T02:54:17.508Z,91.39
2018-12-17T02:55:17.498Z,91.39
2018-12-17T02:56:17.485Z,90.77
2018-12-17T02:57:17.478Z,90.77
2018-12-17T02:58:17.963Z,90.77
2018-12-17T02:59:17.496Z,90.56
2018-12-17T03:01:38.869Z,90.97
2018-12-17T03:02:38.645Z,90.97
2018-12-17T03:03:38.636Z,90.87
2018-12-17T03:04:38.626Z,90.87
2018-12-17T03:05:38.619Z,90.87
2018-12-17T03:06:38.604Z,90.77
2018-12-17T03:07:38.914Z,90.97
2018-12-17T03:08:38.583Z,90.97
2018-12-17T03:09:38.574Z,90.41
2018-12-17T03:10:38.562Z,90.56
2018-12-17T03:11:38.554Z,90.20
2018-12-17T03:12:38.543Z,90.52
2018-12-17T03:13:38.588Z,90.56
2018-12-17T03:14:38.524Z,90.52
2018-12-17T03:15:38.508Z,90.52
2018-12-17T03:16:38.503Z,90.66
2018-12-17T03:17:38.488Z,90.00
2018-12-17T03:18:38.479Z,90.14
2018-12-17T03:19:38.951Z,89.72
2018-12-17T03:20:38.459Z,90.77
2018-12-17T03:21:38.449Z,90.77
2018-12-17T03:22:38.438Z,90.66
2018-12-17T03:23:38.432Z,90.25
2018-12-17T03:24:38.420Z,90.56
2018-12-17T03:25:38.445Z,90.87
2018-12-17T03:26:38.396Z,90.25
2018-12-17T03:27:38.384Z,90.14
2018-12-17T03:28:38.375Z,90.14
2018-12-17T03:29:38.369Z,89.93
2018-12-17T03:30:38.359Z,89.93
2018-12-17T03:31:38.383Z,90.14
2018-12-17T03:32:38.334Z,89.72
2018-12-17T03:33:38.322Z,90.45
2018-12-17T03:34:38.311Z,90.03
2018-12-17T03:35:38.316Z,90.66
2018-12-17T03:36:38.293Z,90.03
2018-12-17T03:37:38.869Z,90.03
2018-12-17T03:38:38.272Z,90.14
2018-12-17T03:39:38.258Z,90.14
2018-12-17T03:40:38.248Z,90.03
2018-12-17T03:41:38.246Z,89.93
2018-12-17T03:42:38.228Z,90.25
2018-12-17T03:43:38.258Z,90.14
2018-12-17T03:44:38.694Z,89.83
2018-12-17T03:45:38.195Z,89.62
2018-12-17T03:46:38.186Z,89.41
2018-12-17T03:47:38.178Z,89.93
2018-12-17T03:48:38.164Z,89.37
2018-12-17T03:49:38.193Z,89.58
2018-12-17T03:50:38.142Z,89.16
2018-12-17T03:51:38.545Z,89.41
2018-12-17T03:52:38.124Z,89.41
2018-12-17T03:53:38.112Z,89.41
2018-12-17T03:54:38.847Z,89.26
2018-12-17T03:55:38.398Z,89.72
2018-12-17T03:56:38.081Z,89.89
2018-12-17T03:57:38.071Z,89.68
2018-12-17T03:58:38.629Z,89.93
2018-12-17T03:59:38.097Z,89.83
2018-12-17T04:00:38.042Z,89.72
2018-12-17T04:01:38.089Z,90.25
2018-12-17T04:02:38.020Z,89.16
2018-12-17T04:03:38.024Z,89.26
2018-12-17T04:04:38.001Z,89.72
2018-12-17T04:05:37.987Z,89.62
2018-12-17T04:06:37.978Z,89.83
2018-12-17T04:07:38.007Z,89.68
2018-12-17T04:08:37.978Z,89.83
2018-12-17T04:09:37.945Z,89.78
2018-12-17T04:10:37.937Z,89.58
2018-12-17T04:11:38.377Z,89.47
2018-12-17T04:12:37.917Z,89.26
2018-12-17T04:13:37.964Z,89.47
2018-12-17T04:14:37.893Z,89.68
2018-12-17T04:15:37.882Z,89.47
2018-12-17T04:16:37.873Z,89.68
2018-12-17T04:17:37.866Z,89.58
2018-12-17T04:18:37.858Z,89.68
2018-12-17T04:19:37.885Z,89.68
2018-12-17T04:20:37.830Z,89.26
2018-12-17T04:21:37.823Z,89.16
2018-12-17T04:22:37.825Z,89.47
2018-12-17T04:23:38.118Z,89.58
2018-12-17T04:24:37.789Z,89.37
2018-12-17T04:25:37.852Z,89.37
2018-12-17T04:26:37.768Z,89.26
2018-12-17T04:27:37.769Z,89.78
2018-12-17T04:28:37.753Z,89.26
2018-12-17T04:29:37.739Z,89.47
2018-12-17T04:30:37.728Z,89.47
2018-12-17T04:31:37.801Z,89.47
2018-12-17T04:32:37.709Z,89.58
2018-12-17T04:33:37.694Z,89.68
2018-12-17T04:34:37.683Z,89.37
2018-12-17T04:35:38.022Z,89.37
2018-12-17T04:36:37.664Z,89.78
2018-12-17T04:37:37.690Z,89.58
2018-12-17T04:38:37.644Z,89.64
2018-12-17T04:39:37.632Z,89.26
2018-12-17T04:40:37.639Z,89.89
2018-12-17T04:41:37.612Z,89.75
2018-12-17T04:42:38.038Z,89.22
2018-12-17T04:43:37.632Z,89.37
2018-12-17T04:44:37.582Z,89.26
2018-12-17T04:45:37.579Z,89.26
2018-12-17T04:46:37.560Z,89.37
2018-12-17T04:47:37.551Z,89.85
2018-12-17T04:48:37.543Z,89.22
2018-12-17T04:49:38.297Z,89.78
2018-12-17T04:50:37.520Z,89.32
2018-12-17T04:51:37.508Z,89.68
2018-12-17T04:52:37.502Z,89.43
2018-12-17T04:53:37.488Z,89.37
2018-12-17T04:54:37.476Z,89.54
2018-12-17T04:55:37.506Z,89.58
2018-12-17T04:56:37.844Z,89.58
2018-12-17T04:57:37.445Z,89.54
2018-12-17T04:58:37.437Z,89.68
2018-12-17T04:59:37.424Z,89.16
2018-12-17T05:00:37.416Z,89.22
2018-12-17T05:01:37.442Z,89.75
2018-12-17T05:02:37.395Z,89.22
2018-12-17T05:03:37.399Z,89.12
2018-12-17T05:04:37.373Z,89.64
2018-12-17T05:05:37.362Z,89.12
2018-12-17T05:06:37.358Z,89.12
2018-12-17T05:07:37.397Z,89.18
2018-12-17T05:08:37.333Z,88.76
2018-12-17T05:09:37.333Z,89.18
2018-12-17T05:10:37.312Z,89.43
2018-12-17T05:11:37.300Z,89.54
2018-12-17T05:12:37.290Z,88.91
2018-12-17T05:13:37.319Z,88.56
2018-12-17T05:14:37.369Z,88.87
2018-12-17T05:15:37.632Z,89.39
2018-12-17T05:16:37.247Z,89.39
2018-12-17T05:17:37.237Z,89.18
2018-12-17T05:18:37.228Z,88.76
2018-12-17T05:19:37.257Z,88.76
2018-12-17T05:20:37.209Z,88.76
2018-12-17T05:21:37.196Z,88.56
2018-12-17T05:22:37.492Z,89.50
2018-12-17T05:23:37.177Z,89.18
2018-12-17T05:24:37.167Z,88.29
2018-12-17T05:25:37.371Z,88.56
2018-12-17T05:26:37.144Z,89.39
2018-12-17T05:27:37.210Z,89.18
2018-12-17T05:28:37.166Z,89.43
2018-12-17T05:29:37.476Z,89.29
2018-12-17T05:30:37.825Z,89.18
2018-12-17T05:31:37.162Z,89.22
2018-12-17T05:32:37.083Z,89.32
2018-12-17T05:33:37.074Z,89.29
2018-12-17T05:34:37.065Z,89.50
2018-12-17T05:35:37.051Z,89.54
2018-12-17T05:36:37.496Z,88.87
2018-12-17T05:37:37.071Z,89.39
2018-12-17T05:38:37.020Z,89.08
2018-12-17T05:39:37.034Z,89.50
2018-12-17T05:40:36.998Z,89.50
2018-12-17T05:41:36.988Z,88.76
2018-12-17T05:42:36.986Z,88.87
2018-12-17T05:43:38.500Z,89.39
2018-12-17T05:44:36.957Z,89.39
2018-12-17T05:45:36.946Z,88.98
2018-12-17T05:46:36.940Z,89.39
2018-12-17T05:47:36.925Z,89.29
2018-12-17T05:48:36.916Z,89.08
2018-12-17T05:49:36.947Z,88.66
2018-12-17T05:50:37.375Z,89.18
2018-12-17T05:51:36.887Z,89.50
2018-12-17T05:52:36.874Z,88.76
2018-12-17T05:53:36.873Z,88.76
2018-12-17T05:54:36.855Z,88.76
2018-12-17T05:55:37.057Z,88.35
2018-12-17T05:56:36.832Z,89.50
2018-12-17T05:57:37.147Z,89.39
2018-12-17T05:58:36.812Z,89.39
2018-12-17T05:59:36.801Z,89.50
2018-12-17T06:00:36.791Z,88.87
2018-12-17T06:01:36.865Z,88.66
2018-12-17T06:02:36.774Z,88.98
2018-12-17T06:03:36.769Z,89.39
2018-12-17T06:04:37.174Z,88.87
2018-12-17T06:05:36.738Z,89.50
2018-12-17T06:06:36.729Z,88.56
2018-12-17T06:07:36.759Z,88.76
2018-12-17T06:08:36.707Z,88.66
2018-12-17T06:09:36.699Z,88.56
2018-12-17T06:10:36.686Z,88.24
2018-12-17T06:11:36.677Z,88.73
2018-12-17T06:12:36.666Z,88.87
2018-12-17T06:13:36.693Z,89.29
2018-12-17T06:14:36.649Z,88.76
2018-12-17T06:15:36.634Z,88.24
2018-12-17T06:16:37.077Z,88.56
2018-12-17T06:17:36.684Z,88.93
2018-12-17T06:18:36.610Z,87.93
2018-12-17T06:19:36.664Z,88.31
2018-12-17T06:20:36.583Z,88.24
2018-12-17T06:21:36.579Z,88.66
2018-12-17T06:22:36.562Z,88.66
2018-12-17T06:23:36.551Z,88.24
2018-12-17T06:24:36.540Z,88.62
2018-12-17T06:25:36.588Z,88.98
2018-12-17T06:26:36.528Z,88.87
2018-12-17T06:27:36.853Z,88.87
2018-12-17T06:28:37.006Z,88.62
2018-12-17T06:29:36.499Z,88.66
2018-12-17T06:30:36.481Z,88.73
2018-12-17T06:31:36.514Z,88.20
2018-12-17T06:32:36.461Z,88.66
2018-12-17T06:33:36.453Z,88.73
2018-12-17T06:34:36.442Z,88.98
2018-12-17T06:35:36.482Z,88.20
2018-12-17T06:36:36.421Z,87.89
2018-12-17T06:37:36.459Z,88.35
2018-12-17T06:38:36.400Z,88.93
2018-12-17T06:39:36.387Z,88.93
2018-12-17T06:40:36.377Z,88.93
2018-12-17T06:41:36.815Z,88.56
2018-12-17T06:42:36.356Z,88.87
2018-12-17T06:43:36.384Z,89.29
2018-12-17T06:44:36.335Z,88.87
2018-12-17T06:45:36.325Z,89.29
2018-12-17T06:46:36.318Z,89.18
2018-12-17T06:47:36.307Z,89.08
2018-12-17T06:48:36.752Z,88.98
2018-12-17T06:49:36.324Z,89.91
2018-12-17T06:50:36.272Z,89.18
2018-12-17T06:51:36.262Z,89.60
2018-12-17T06:52:36.254Z,89.60
2018-12-17T06:53:36.243Z,89.18
2018-12-17T06:54:36.231Z,89.60
2018-12-17T06:55:36.898Z,89.64
2018-12-17T06:56:36.212Z,89.29
2018-12-17T06:57:36.200Z,89.18
2018-12-17T06:58:36.191Z,89.39
2018-12-17T06:59:42.472Z,89.29
2018-12-17T07:00:37.193Z,89.32
2018-12-17T07:01:37.773Z,89.81
2018-12-17T07:02:36.152Z,89.64
2018-12-17T07:03:36.153Z,89.81
2018-12-17T07:04:36.129Z,89.81
2018-12-17T07:05:36.808Z,89.81
2018-12-17T07:06:36.108Z,89.91
2018-12-17T07:07:36.133Z,89.81
2018-12-17T07:08:36.451Z,89.60
2018-12-17T07:09:36.076Z,89.50
2018-12-17T07:10:36.065Z,89.50
2018-12-17T07:11:36.054Z,89.85
2018-12-17T07:12:36.047Z,89.50
2018-12-17T07:13:36.082Z,89.18
2018-12-17T07:14:36.675Z,89.81
2018-12-17T07:15:36.012Z,89.50
2018-12-17T07:16:36.004Z,89.70
2018-12-17T07:17:36.017Z,89.29
2018-12-17T07:18:35.981Z,89.18
2018-12-17T07:19:36.146Z,89.18
2018-12-17T07:20:35.963Z,89.29
2018-12-17T07:21:36.462Z,89.08
2018-12-17T07:22:36.019Z,89.81
2018-12-17T07:23:35.929Z,89.50
2018-12-17T07:24:35.920Z,89.08
2018-12-17T07:25:35.948Z,89.50
2018-12-17T07:26:36.002Z,89.81
2018-12-17T07:27:36.943Z,89.81
2018-12-17T07:28:35.911Z,89.81
2018-12-17T07:29:36.032Z,90.01
2018-12-17T07:30:35.979Z,89.70
2018-12-17T07:31:36.097Z,89.50
2018-12-17T07:32:35.838Z,89.39
2018-12-17T07:33:36.233Z,89.29
2018-12-17T07:34:35.817Z,89.54
2018-12-17T07:35:35.806Z,89.64
2018-12-17T07:36:35.969Z,89.50
2018-12-17T07:37:35.957Z,89.50
2018-12-17T07:38:35.946Z,89.60
2018-12-17T07:39:35.769Z,89.81
2018-12-17T07:40:35.881Z,89.81
2018-12-17T07:41:35.916Z,89.64
2018-12-17T07:42:35.828Z,89.70
2018-12-17T07:43:35.922Z,89.43
2018-12-17T07:44:35.768Z,89.60
2018-12-17T07:45:36.067Z,89.60
2018-12-17T07:46:35.693Z,89.60
2018-12-17T07:47:35.682Z,90.12
2018-12-17T07:48:35.672Z,89.91
2018-12-17T07:49:36.171Z,89.85
2018-12-17T07:50:35.649Z,89.54
2018-12-17T07:51:35.639Z,89.64
2018-12-17T07:52:36.110Z,89.95
2018-12-17T07:53:35.618Z,89.85
2018-12-17T07:54:35.638Z,90.22
2018-12-17T07:55:35.651Z,90.75
2018-12-17T07:56:35.587Z,90.01
2018-12-17T07:57:35.581Z,90.01
2018-12-17T07:58:35.569Z,89.81
2018-12-17T07:59:35.845Z,89.91
2018-12-17T08:00:35.548Z,90.01
2018-12-17T08:01:35.575Z,90.12
2018-12-17T08:02:35.526Z,89.60
2018-12-17T08:03:35.517Z,89.18
2018-12-17T08:04:35.506Z,89.45
2018-12-17T08:05:35.493Z,89.50
2018-12-17T08:06:35.865Z,89.29
2018-12-17T08:07:35.547Z,89.18
2018-12-17T08:08:35.781Z,89.08
2018-12-17T08:09:35.457Z,89.70
2018-12-17T08:10:35.456Z,90.01
2018-12-17T08:11:35.430Z,89.81
2018-12-17T08:12:35.421Z,90.12
2018-12-17T08:13:36.010Z,90.01
2018-12-17T08:14:35.401Z,90.01
2018-12-17T08:15:35.529Z,89.91
2018-12-17T08:16:35.504Z,90.54
2018-12-17T08:17:35.416Z,89.81
2018-12-17T08:18:35.543Z,89.81
2018-12-17T08:19:35.598Z,89.81
2018-12-17T08:20:35.701Z,89.60
2018-12-17T08:21:35.329Z,90.12
2018-12-17T08:22:35.315Z,90.01
2018-12-17T08:23:35.511Z,90.01
2018-12-17T08:24:35.302Z,90.01
2018-12-17T08:25:35.582Z,90.44
2018-12-17T08:26:35.345Z,90.44
2018-12-17T08:27:35.718Z,90.54
2018-12-17T08:28:35.276Z,90.54
2018-12-17T08:29:35.243Z,89.70
2018-12-17T08:30:35.232Z,89.70
2018-12-17T08:31:35.263Z,89.50
2018-12-17T08:32:35.211Z,89.98
2018-12-17T08:33:35.202Z,90.33
2018-12-17T08:34:35.348Z,89.56
2018-12-17T08:35:35.186Z,89.45
2018-12-17T08:36:35.209Z,89.56
2018-12-17T08:37:35.222Z,89.98
2018-12-17T08:38:35.185Z,89.76
2018-12-17T08:39:35.382Z,89.25
2018-12-17T08:40:35.621Z,89.76
2018-12-17T08:41:35.329Z,89.04
2018-12-17T08:42:35.370Z,89.76
2018-12-17T08:43:35.215Z,90.39
2018-12-17T08:44:35.208Z,90.29
2018-12-17T08:45:35.090Z,89.87
2018-12-17T08:46:35.818Z,90.50
2018-12-17T08:47:35.623Z,90.19
2018-12-17T08:48:35.081Z,90.50
2018-12-17T08:49:35.237Z,90.29
2018-12-17T08:50:35.339Z,90.08
2018-12-17T08:51:35.067Z,90.29
2018-12-17T08:52:35.007Z,90.50
2018-12-17T08:53:35.936Z,90.08
2018-12-17T08:54:35.536Z,90.29
2018-12-17T08:55:35.393Z,90.29
2018-12-17T08:56:35.027Z,90.19
2018-12-17T08:57:38.065Z,90.29
2018-12-17T08:58:35.096Z,90.08
2018-12-17T08:59:35.255Z,90.29
2018-12-17T09:00:35.108Z,89.83
2018-12-17T09:01:35.097Z,89.31
2018-12-17T09:02:35.135Z,89.41
2018-12-17T09:03:35.083Z,89.31
2018-12-17T09:04:34.900Z,89.10
2018-12-17T09:05:35.058Z,89.41
2018-12-17T09:06:35.074Z,89.20
2018-12-17T09:07:35.680Z,89.00
2018-12-17T09:08:35.135Z,89.10
2018-12-17T09:09:34.977Z,89.41
2018-12-17T09:10:34.886Z,89.10
2018-12-17T09:11:34.878Z,89.00
2018-12-17T09:12:34.853Z,89.73
2018-12-17T09:13:35.035Z,89.41
2018-12-17T09:14:34.908Z,89.10
2018-12-17T09:15:35.079Z,89.20
2018-12-17T09:16:34.838Z,89.58
2018-12-17T09:17:35.261Z,89.00
2018-12-17T09:18:34.958Z,89.37
2018-12-17T09:19:35.718Z,89.20
2018-12-17T09:21:23.979Z,89.41
2018-12-17T09:22:23.982Z,89.37
2018-12-17T09:23:24.000Z,88.75
2018-12-17T09:24:24.019Z,88.60
2018-12-17T09:25:24.283Z,88.43
2018-12-17T09:26:31.998Z,88.79
2018-12-17T09:27:24.105Z,88.96
2018-12-17T09:28:24.174Z,89.17
2018-12-17T09:29:31.252Z,89.06
2018-12-17T09:30:24.022Z,89.27
2018-12-17T09:31:24.110Z,89.37
2018-12-17T09:32:24.740Z,89.17
2018-12-17T09:33:24.414Z,89.06
2018-12-17T09:34:24.267Z,89.23
2018-12-17T09:35:24.816Z,88.64
2018-12-17T09:36:23.980Z,88.92
2018-12-17T09:37:24.223Z,88.71
2018-12-17T09:38:23.860Z,87.88
2018-12-17T09:39:23.927Z,87.88
2018-12-17T09:40:23.852Z,88.50
2018-12-17T09:41:23.862Z,88.81
2018-12-17T09:42:32.025Z,88.33
2018-12-17T09:43:24.036Z,88.40
2018-12-17T09:44:23.728Z,89.23
2018-12-17T09:45:25.218Z,88.92
2018-12-17T09:46:23.752Z,88.29
2018-12-17T09:47:23.746Z,88.25
2018-12-17T09:48:23.724Z,87.21
2018-12-17T09:49:31.195Z,87.94
2018-12-17T09:50:23.667Z,88.29
2018-12-17T09:51:23.658Z,87.88
2018-12-17T09:52:23.767Z,87.77
2018-12-17T09:53:23.660Z,88.71
2018-12-17T09:54:24.953Z,88.15
2018-12-17T09:55:23.793Z,88.21
2018-12-17T09:56:23.824Z,87.48
2018-12-17T09:57:23.757Z,86.96
2018-12-17T09:58:24.153Z,86.82
2018-12-17T09:59:23.635Z,87.03
2018-12-17T10:00:25.569Z,86.13
2018-12-17T10:01:23.606Z,86.72
2018-12-17T10:02:23.683Z,86.30
2018-12-17T10:03:23.751Z,85.88
2018-12-17T10:04:23.541Z,86.09
2018-12-17T10:05:23.511Z,86.96
2018-12-17T10:06:23.599Z,86.34
2018-12-17T10:07:30.308Z,87.27
2018-12-17T10:08:24.486Z,86.86
2018-12-17T10:09:23.471Z,87.17
2018-12-17T10:10:23.460Z,87.27
2018-12-17T10:11:23.858Z,87.34
2018-12-17T10:12:23.674Z,86.93
2018-12-17T10:13:23.430Z,86.05
2018-12-17T10:14:23.593Z,85.53
2018-12-17T10:15:23.558Z,85.64
2018-12-17T10:16:23.598Z,85.43
2018-12-17T10:17:23.552Z,85.50
2018-12-17T10:18:36.834Z,85.85
2018-12-17T10:19:24.474Z,85.50
2018-12-17T10:20:24.066Z,85.08
2018-12-17T10:21:23.347Z,85.91
2018-12-17T10:22:23.336Z,86.43
2018-12-17T10:23:23.325Z,86.22
2018-12-17T10:24:23.401Z,85.97
2018-12-17T10:25:23.776Z,86.18
2018-12-17T10:26:23.293Z,85.50
2018-12-17T10:27:23.283Z,85.14
2018-12-17T10:28:23.270Z,86.02
2018-12-17T10:29:23.262Z,85.56
2018-12-17T10:30:23.469Z,85.87
2018-12-17T10:31:23.239Z,85.56
2018-12-17T10:32:23.804Z,84.94
2018-12-17T10:33:23.230Z,85.25
2018-12-17T10:34:23.257Z,84.73
2018-12-17T10:35:23.379Z,85.21
2018-12-17T10:36:23.555Z,85.42
2018-12-17T10:37:23.259Z,86.15
2018-12-17T10:38:23.315Z,85.73
2018-12-17T10:39:23.735Z,85.21
2018-12-17T10:40:23.156Z,83.83
2018-12-17T10:41:23.141Z,84.23
2018-12-17T10:42:23.999Z,84.13
2018-12-17T10:43:23.302Z,84.23
2018-12-17T10:44:23.110Z,83.31
2018-12-17T10:45:23.175Z,84.09
2018-12-17T10:46:23.560Z,84.30
2018-12-17T10:47:23.228Z,84.09
2018-12-17T10:48:23.146Z,84.09
2018-12-17T10:49:23.057Z,84.09
2018-12-17T10:50:23.061Z,83.78
2018-12-17T10:51:23.062Z,83.72
2018-12-17T10:52:23.136Z,84.23
2018-12-17T10:53:23.011Z,83.26
2018-12-17T10:54:23.869Z,83.58
2018-12-17T10:55:22.993Z,83.68
2018-12-17T10:56:23.379Z,83.68
2018-12-17T10:57:23.104Z,83.72
2018-12-17T10:58:23.152Z,84.23
2018-12-17T10:59:23.472Z,84.03
2018-12-17T11:00:23.724Z,85.06
2018-12-17T11:01:22.960Z,84.65
2018-12-17T11:02:23.096Z,84.09
2018-12-17T11:03:23.002Z,84.20
2018-12-17T11:04:24.063Z,83.78
2018-12-17T11:05:23.045Z,83.83
2018-12-17T11:06:23.325Z,85.17
2018-12-17T11:07:23.008Z,85.17
2018-12-17T11:08:22.922Z,84.86
2018-12-17T11:09:22.847Z,84.23
2018-12-17T11:10:23.262Z,85.21
2018-12-17T11:11:23.506Z,85.00
2018-12-17T11:12:23.534Z,85.17
2018-12-17T11:13:23.021Z,85.00
2018-12-17T11:14:22.907Z,84.90
2018-12-17T11:15:23.839Z,85.25
2018-12-17T11:16:22.875Z,85.87
2018-12-17T11:17:22.884Z,85.87
2018-12-17T11:18:23.138Z,85.83
2018-12-17T11:19:22.824Z,85.97
2018-12-17T11:20:23.838Z,85.42
2018-12-17T11:21:22.853Z,86.39
2018-12-17T11:22:23.257Z,86.08
2018-12-17T11:23:22.793Z,86.70
2018-12-17T11:24:24.085Z,86.18
2018-12-17T11:25:22.921Z,87.01
2018-12-17T11:26:22.675Z,86.80
2018-12-17T11:27:22.858Z,87.01
2018-12-17T11:28:23.836Z,87.32
2018-12-17T11:29:23.313Z,87.32
2018-12-17T11:30:23.146Z,87.43
2018-12-17T11:31:22.893Z,87.43
2018-12-17T11:32:22.607Z,87.74
2018-12-17T11:33:22.609Z,87.32
2018-12-17T11:34:22.589Z,87.68
2018-12-17T11:35:22.804Z,88.46
2018-12-17T11:36:23.361Z,88.05
2018-12-17T11:37:22.691Z,88.15
2018-12-17T11:38:22.630Z,88.98
2018-12-17T11:39:22.779Z,88.94
2018-12-17T11:40:22.718Z,88.42
2018-12-17T11:41:22.707Z,87.49
2018-12-17T11:42:24.335Z,88.01
2018-12-17T11:43:23.193Z,88.01
2018-12-17T11:44:22.696Z,87.90
2018-12-17T11:45:22.564Z,89.09
2018-12-17T11:46:22.577Z,88.67
2018-12-17T11:47:23.385Z,88.98
2018-12-17T11:48:23.376Z,89.09
2018-12-17T11:49:22.678Z,89.19
2018-12-17T11:50:23.833Z,88.94
2018-12-17T11:51:22.470Z,88.98
2018-12-17T11:52:22.489Z,89.09
2018-12-17T11:53:22.576Z,88.88
2018-12-17T11:54:23.025Z,89.40
2018-12-17T11:55:22.559Z,89.36
2018-12-17T11:56:22.491Z,89.19
2018-12-17T11:57:22.749Z,89.09
2018-12-17T11:58:22.453Z,89.61
2018-12-17T11:59:22.450Z,88.78
2018-12-17T12:00:24.506Z,89.29
2018-12-17T12:01:22.454Z,89.92
2018-12-17T12:02:22.412Z,89.61
2018-12-17T12:03:22.358Z,90.02
2018-12-17T12:04:22.845Z,89.81
2018-12-17T12:05:22.407Z,89.09
2018-12-17T12:06:22.601Z,88.73
2018-12-17T12:07:22.603Z,88.73
2018-12-17T12:08:22.400Z,88.67
2018-12-17T12:09:22.297Z,89.29
2018-12-17T12:10:22.379Z,89.15
2018-12-17T12:11:22.760Z,89.40
2018-12-17T12:12:22.598Z,89.29
2018-12-17T12:13:22.210Z,89.98
2018-12-17T12:14:22.340Z,90.33
2018-12-17T12:15:23.892Z,89.61
2018-12-17T12:16:22.289Z,89.25
2018-12-17T12:17:22.698Z,88.94
2018-12-17T12:18:22.512Z,89.04
2018-12-17T12:19:22.245Z,89.04
2018-12-17T12:20:22.329Z,89.15
2018-12-17T12:21:22.214Z,88.84
2018-12-17T12:22:22.270Z,89.25
2018-12-17T12:23:22.113Z,88.73
2018-12-17T12:24:22.666Z,90.12
2018-12-17T12:25:22.237Z,89.81
2018-12-17T12:26:22.194Z,90.29
2018-12-17T12:27:22.059Z,89.98
2018-12-17T12:28:22.181Z,90.54
2018-12-17T12:29:22.634Z,89.98
2018-12-17T12:30:24.070Z,89.67
2018-12-17T12:31:22.073Z,90.19
2018-12-17T12:32:22.013Z,90.29
2018-12-17T12:33:22.130Z,89.04
2018-12-17T12:34:22.281Z,89.04
2018-12-17T12:35:22.207Z,89.98
2018-12-17T12:36:22.616Z,89.56
2018-12-17T12:37:22.239Z,89.56
2018-12-17T12:38:22.320Z,89.77
2018-12-17T12:39:22.026Z,90.39
2018-12-17T12:40:21.980Z,90.08
2018-12-17T12:41:21.959Z,89.87
2018-12-17T12:42:22.519Z,89.77
2018-12-17T12:43:21.915Z,89.67
2018-12-17T12:44:21.975Z,90.19
2018-12-17T12:45:22.241Z,89.87
2018-12-17T12:46:22.143Z,90.08
2018-12-17T12:47:22.488Z,90.29
2018-12-17T12:48:22.202Z,90.45
2018-12-17T12:49:21.914Z,90.25
2018-12-17T12:50:22.085Z,90.25
2018-12-17T12:51:22.171Z,90.14
2018-12-17T12:52:22.213Z,89.83
2018-12-17T12:53:23.325Z,89.42
2018-12-17T12:54:22.012Z,89.07